createdAt,value
2019-04-14T00:01:24.209Z,1.17
2019-04-14T00:04:05.241Z,1.20
2019-04-14T00:06:33.385Z,0.97
2019-04-14T00:09:00.984Z,1.20
2019-04-14T00:11:30.143Z,1.33
2019-04-14T00:13:56.721Z,1.47
2019-04-14T00:16:24.981Z,1.00
2019-04-14T00:18:51.292Z,1.23
2019-04-14T00:21:17.621Z,1.00
2019-04-14T00:23:43.833Z,1.03
2019-04-14T00:26:31.542Z,1.03
2019-04-14T00:28:58.211Z,0.98
2019-04-14T00:31:26.241Z,0.90
2019-04-14T00:33:54.258Z,1.00
2019-04-14T00:36:37.544Z,0.95
2019-04-14T00:39:07.491Z,0.97
2019-04-14T00:41:44.823Z,0.87
2019-04-14T00:44:09.981Z,1.27
2019-04-14T00:46:38.806Z,1.30
2019-04-14T00:49:05.101Z,1.23
2019-04-14T00:51:31.383Z,0.90
2019-04-14T00:53:57.988Z,1.17
2019-04-14T00:56:25.545Z,1.17
2019-04-14T00:58:52.161Z,1.10
2019-04-14T01:01:18.372Z,1.23
2019-04-14T01:03:45.964Z,1.10
2019-04-14T01:06:12.320Z,1.13
2019-04-14T01:08:38.614Z,1.00
2019-04-14T01:11:05.265Z,1.30
2019-04-14T01:13:31.680Z,1.27
2019-04-14T01:16:06.571Z,1.10
2019-04-14T01:18:26.103Z,1.00
2019-04-14T01:20:53.534Z,1.17
2019-04-14T01:23:19.944Z,0.85
2019-04-14T01:25:46.166Z,0.80
2019-04-14T01:28:13.625Z,1.00
2019-04-14T01:30:40.113Z,1.27
2019-04-14T01:33:07.524Z,1.27
2019-04-14T01:35:33.966Z,1.20
2019-04-14T01:38:01.519Z,1.20
2019-04-14T01:40:29.196Z,1.15
2019-04-14T01:42:55.534Z,1.00
2019-04-14T01:45:21.750Z,1.20
2019-04-14T01:47:48.958Z,1.27
2019-04-14T01:50:17.097Z,0.80
2019-04-14T01:55:29.357Z,1.10
2019-04-14T02:00:41.018Z,0.90
2019-04-14T02:03:08.546Z,1.00
2019-04-14T02:05:34.860Z,0.90
2019-04-14T02:08:02.252Z,0.90
2019-04-14T02:10:28.602Z,1.05
2019-04-14T02:12:54.821Z,0.90
2019-04-14T02:15:22.180Z,0.90
2019-04-14T02:17:48.561Z,0.72
2019-04-14T02:20:14.871Z,0.80
2019-04-14T02:22:41.954Z,0.97
2019-04-14T02:25:08.314Z,1.20
2019-04-14T02:27:34.521Z,1.17
2019-04-14T02:30:00.748Z,0.70
2019-04-14T02:45:19.389Z,0.70
2019-04-14T02:55:19.025Z,0.57
2019-04-14T03:02:29.904Z,0.63
2019-04-14T03:04:57.025Z,1.03
2019-04-14T03:12:24.442Z,0.63
2019-04-14T03:17:30.248Z,0.60
2019-04-14T03:20:17.420Z,0.90
2019-04-14T03:22:28.977Z,0.80
2019-04-14T03:25:03.090Z,0.90
2019-04-14T03:27:48.251Z,0.75
2019-04-14T03:30:36.425Z,0.80
2019-04-14T03:33:05.281Z,0.50
2019-04-14T03:38:14.648Z,0.90
2019-04-14T03:48:18.984Z,0.80
2019-04-14T03:55:11.345Z,0.73
2019-04-14T04:02:20.563Z,0.80
2019-04-14T04:04:46.878Z,0.93
2019-04-14T04:07:13.197Z,1.00
2019-04-14T04:09:41.322Z,0.80
2019-04-14T04:14:33.828Z,0.80
2019-04-14T04:17:01.965Z,0.83
2019-04-14T04:22:26.013Z,0.90
2019-04-14T04:24:54.354Z,0.70
2019-04-14T04:27:22.554Z,0.77
2019-04-14T04:32:38.312Z,0.80
2019-04-14T04:35:06.849Z,0.87
2019-04-14T04:37:52.020Z,0.63
2019-04-14T04:40:20.269Z,0.80
2019-04-14T04:45:12.780Z,0.87
2019-04-14T04:47:40.510Z,0.70
2019-04-14T04:50:06.820Z,0.35
2019-04-14T04:52:33.039Z,1.30
2019-04-14T04:55:00.175Z,1.10
2019-04-14T04:57:26.578Z,0.85
2019-04-14T04:59:53.976Z,0.70
2019-04-14T05:02:20.445Z,0.37
2019-04-14T05:04:46.755Z,1.00
2019-04-14T05:07:12.978Z,0.90
2019-04-14T05:09:44.821Z,0.90
2019-04-14T05:12:22.037Z,0.97
2019-04-14T05:14:50.274Z,0.80
2019-04-14T05:19:45.580Z,0.90
2019-04-14T05:22:14.783Z,1.00
2019-04-14T05:27:06.106Z,0.60
2019-04-14T05:29:32.329Z,0.80
2019-04-14T05:31:58.537Z,0.87
2019-04-14T05:34:25.849Z,0.93
2019-04-14T05:36:52.436Z,1.00
2019-04-14T05:39:19.884Z,0.80
2019-04-14T05:41:56.699Z,1.00
2019-04-14T05:44:14.408Z,1.02
2019-04-14T05:46:40.617Z,1.20
2019-04-14T05:49:06.830Z,0.80
2019-04-14T05:51:33.140Z,0.80
2019-04-14T05:53:59.356Z,0.93
2019-04-14T05:56:25.580Z,1.43
2019-04-14T05:58:51.821Z,1.10
2019-04-14T06:01:18.219Z,1.10
2019-04-14T06:03:45.666Z,0.93
2019-04-14T06:06:11.981Z,1.02
2019-04-14T06:08:38.189Z,1.05
2019-04-14T06:11:04.398Z,0.93
2019-04-14T06:13:30.637Z,1.05
2019-04-14T06:15:56.849Z,1.30
2019-04-14T06:18:23.052Z,1.32
2019-04-14T06:20:49.273Z,1.10
2019-04-14T06:23:15.485Z,1.17
2019-04-14T06:25:41.694Z,1.12
2019-04-14T06:28:07.905Z,0.80
2019-04-14T06:30:36.012Z,0.80
2019-04-14T06:33:04.136Z,0.90
2019-04-14T06:35:38.133Z,1.00
2019-04-14T06:38:06.421Z,0.82
2019-04-14T06:43:15.981Z,0.80
2019-04-14T06:45:43.304Z,0.83
2019-04-14T06:48:09.524Z,0.80
2019-04-14T06:50:35.736Z,0.80
2019-04-14T06:53:01.949Z,1.00
2019-04-14T06:55:28.172Z,0.88
2019-04-14T06:57:54.378Z,0.90
2019-04-14T07:00:20.589Z,0.70
2019-04-14T07:02:48.056Z,1.00
2019-04-14T07:05:14.542Z,0.95
2019-04-14T07:07:40.744Z,0.78
2019-04-14T07:10:06.965Z,1.02
2019-04-14T07:12:33.167Z,1.10
2019-04-14T07:14:59.377Z,1.05
2019-04-14T07:17:25.609Z,0.82
2019-04-14T07:20:01.305Z,0.80
2019-04-14T07:22:20.004Z,0.88
2019-04-14T07:24:46.228Z,0.80
2019-04-14T07:27:12.437Z,0.90
2019-04-14T07:29:40.549Z,1.00
2019-04-14T07:32:08.673Z,1.07
2019-04-14T07:34:45.865Z,1.30
2019-04-14T07:37:14.093Z,0.88
2019-04-14T07:39:48.083Z,0.80
2019-04-14T07:42:19.312Z,1.10
2019-04-14T07:45:02.705Z,1.00
2019-04-14T07:47:31.943Z,0.93
2019-04-14T07:50:16.807Z,0.80
2019-04-14T07:52:57.035Z,0.90
2019-04-14T07:55:37.277Z,1.07
2019-04-14T07:58:15.379Z,0.80
2019-04-14T08:00:43.587Z,1.00
2019-04-14T08:03:12.702Z,0.80
2019-04-14T08:05:40.855Z,1.00
2019-04-14T08:08:07.069Z,0.90
2019-04-14T08:10:33.285Z,1.17
2019-04-14T08:12:59.573Z,0.72
2019-04-14T08:15:26.785Z,0.80
2019-04-14T08:17:52.997Z,0.90
2019-04-14T08:20:27.337Z,0.75
2019-04-14T08:22:47.341Z,0.80
2019-04-14T08:25:13.552Z,1.05
2019-04-14T08:27:39.777Z,0.88
2019-04-14T08:30:06.785Z,0.80
2019-04-14T08:32:33.005Z,0.85
2019-04-14T08:34:59.237Z,0.72
2019-04-14T08:37:25.453Z,0.85
2019-04-14T08:39:51.666Z,0.90
2019-04-14T08:42:19.795Z,0.80
2019-04-14T08:47:32.721Z,1.10
2019-04-14T08:50:00.945Z,0.90
2019-04-14T08:52:29.061Z,1.02
2019-04-14T08:54:59.746Z,0.80
2019-04-14T08:57:30.946Z,1.27
2019-04-14T08:59:59.071Z,0.90
2019-04-14T09:02:27.196Z,0.70
2019-04-14T09:05:04.378Z,0.80
2019-04-14T09:07:35.725Z,0.80
2019-04-14T09:10:04.646Z,0.90
2019-04-14T09:12:32.766Z,0.80
2019-04-14T09:14:59.057Z,0.65
2019-04-14T09:17:27.082Z,0.75
2019-04-14T09:19:53.402Z,1.02
2019-04-14T09:22:19.727Z,1.00
2019-04-14T09:24:45.944Z,1.00
2019-04-14T09:27:12.157Z,0.80
2019-04-14T09:29:38.377Z,0.72
2019-04-14T09:32:06.485Z,0.80
2019-04-14T09:34:32.706Z,0.80
2019-04-14T09:36:59.033Z,0.80
2019-04-14T09:39:25.261Z,0.72
2019-04-14T09:41:51.489Z,0.70
2019-04-14T09:44:17.713Z,0.88
2019-04-14T09:46:43.997Z,0.40
2019-04-14T09:49:10.226Z,0.57
2019-04-14T09:51:36.554Z,0.70
2019-04-14T09:54:03.063Z,0.70
2019-04-14T09:56:29.294Z,0.80
2019-04-14T09:58:56.620Z,0.60
2019-04-14T10:01:23.933Z,0.62
2019-04-14T10:03:50.161Z,0.70
2019-04-14T10:06:16.387Z,0.90
2019-04-14T10:08:42.706Z,0.93
2019-04-14T10:11:08.930Z,0.50
2019-04-14T10:13:35.161Z,0.60
2019-04-14T10:16:01.375Z,0.65
2019-04-14T10:18:27.656Z,0.70
2019-04-14T10:20:53.960Z,0.60
2019-04-14T10:23:20.185Z,0.70
2019-04-14T10:25:46.405Z,0.60
2019-04-14T10:28:22.674Z,0.63
2019-04-14T10:30:49.885Z,0.80
2019-04-14T10:33:16.115Z,0.53
2019-04-14T10:35:42.346Z,0.70
2019-04-14T10:38:09.673Z,0.60
2019-04-14T10:40:35.914Z,0.50
2019-04-14T10:43:02.246Z,0.60
2019-04-14T10:45:28.469Z,0.50
2019-04-14T10:47:54.778Z,0.50
2019-04-14T10:50:30.707Z,0.62
2019-04-14T10:52:49.973Z,0.78
2019-04-14T10:55:16.841Z,0.68
2019-04-14T10:57:43.177Z,0.50
2019-04-14T11:00:14.288Z,0.60
2019-04-14T11:02:40.610Z,0.68
2019-04-14T11:05:07.345Z,0.88
2019-04-14T11:07:34.763Z,0.82
2019-04-14T11:10:00.977Z,0.80
2019-04-14T11:12:27.232Z,0.60
2019-04-14T11:14:53.436Z,0.60
2019-04-14T11:17:19.657Z,0.60
2019-04-14T11:19:45.873Z,0.45
2019-04-14T11:22:12.109Z,0.80
2019-04-14T11:24:38.429Z,0.70
2019-04-14T11:27:04.757Z,0.72
2019-04-14T11:29:31.065Z,0.60
2019-04-14T11:32:05.066Z,0.68
2019-04-14T11:34:36.210Z,0.60
2019-04-14T11:37:07.112Z,0.50
2019-04-14T11:39:33.425Z,0.72
2019-04-14T11:41:59.656Z,0.72
2019-04-14T11:44:25.991Z,0.70
2019-04-14T11:46:53.291Z,1.10
2019-04-14T11:49:19.600Z,1.15
2019-04-14T11:51:55.054Z,0.80
2019-04-14T11:54:14.133Z,1.17
2019-04-14T11:56:40.363Z,0.70
2019-04-14T11:59:06.678Z,0.50
2019-04-14T12:01:37.813Z,0.80
2019-04-14T12:04:09.824Z,0.82
2019-04-14T12:06:54.045Z,0.70
2019-04-14T12:09:22.170Z,0.70
2019-04-14T12:14:14.673Z,0.70
2019-04-14T12:16:41.207Z,0.80
2019-04-14T12:19:07.517Z,0.72
2019-04-14T12:21:33.727Z,0.78
2019-04-14T12:23:59.949Z,0.70
2019-04-14T12:26:26.265Z,0.80
2019-04-14T12:28:53.632Z,0.70
2019-04-14T12:31:20.100Z,1.80
2019-04-14T12:33:46.305Z,0.80
2019-04-14T12:36:12.625Z,1.07
2019-04-14T12:38:38.845Z,0.90
2019-04-14T12:41:08.260Z,0.72
2019-04-14T12:43:53.066Z,0.75
2019-04-14T12:46:21.173Z,0.88
2019-04-14T12:49:07.681Z,0.90
2019-04-14T12:51:35.809Z,0.95
2019-04-14T12:54:02.221Z,0.65
2019-04-14T12:56:29.214Z,0.80
2019-04-14T12:58:57.317Z,0.70
2019-04-14T13:01:25.533Z,1.00
2019-04-14T13:06:17.841Z,0.70
2019-04-14T13:08:45.048Z,0.85
2019-04-14T13:11:11.289Z,0.72
2019-04-14T13:13:37.496Z,1.25
2019-04-14T13:16:03.721Z,0.60
2019-04-14T13:18:30.947Z,0.55
2019-04-14T13:20:57.234Z,0.72
2019-04-14T13:23:23.553Z,0.70
2019-04-14T13:25:49.873Z,0.88
2019-04-14T13:28:16.093Z,0.62
2019-04-14T13:30:42.802Z,0.70
2019-04-14T13:33:09.021Z,0.68
2019-04-14T13:35:35.331Z,0.70
2019-04-14T13:38:01.640Z,0.80
2019-04-14T13:40:27.867Z,0.60
2019-04-14T13:42:54.086Z,0.70
2019-04-14T13:45:20.297Z,0.88
2019-04-14T13:47:46.520Z,0.90
2019-04-14T13:50:12.839Z,0.85
2019-04-14T13:52:46.615Z,0.85
2019-04-14T13:55:07.784Z,0.68
2019-04-14T13:57:34.100Z,0.75
2019-04-14T14:00:00.409Z,0.70
2019-04-14T14:02:26.641Z,0.95
2019-04-14T14:04:52.863Z,0.70
2019-04-14T14:07:19.373Z,0.90
2019-04-14T14:09:45.598Z,0.78
2019-04-14T14:12:19.749Z,0.70
2019-04-14T14:14:59.586Z,0.68
2019-04-14T14:17:30.454Z,0.50
2019-04-14T14:20:07.529Z,0.62
2019-04-14T14:22:41.929Z,0.80
2019-04-14T14:25:22.093Z,0.80
2019-04-14T14:27:48.497Z,0.90
2019-04-14T14:30:17.776Z,0.78
2019-04-14T14:32:44.006Z,0.75
2019-04-14T14:35:10.316Z,0.60
2019-04-14T14:37:36.566Z,0.60
2019-04-14T14:40:05.112Z,0.82
2019-04-14T14:42:31.429Z,0.65
2019-04-14T14:45:02.701Z,0.90
2019-04-14T14:47:32.025Z,0.70
2019-04-14T14:50:11.917Z,0.65
2019-04-14T14:52:39.049Z,0.78
2019-04-14T14:55:05.852Z,0.80
2019-04-14T14:57:32.093Z,0.80
2019-04-14T14:59:58.321Z,0.62
2019-04-14T15:02:24.748Z,0.80
2019-04-14T15:04:51.061Z,0.70
2019-04-14T15:07:17.296Z,0.70
2019-04-14T15:09:43.497Z,0.60
2019-04-14T15:12:09.708Z,0.70
2019-04-14T15:14:35.933Z,0.90
2019-04-14T15:17:02.455Z,0.80
2019-04-14T15:19:28.683Z,0.95
2019-04-14T15:21:55.005Z,1.07
2019-04-14T15:24:21.313Z,0.88
2019-04-14T15:26:47.539Z,0.90
2019-04-14T15:29:13.753Z,0.95
2019-04-14T15:31:39.961Z,0.80
2019-04-14T15:34:06.181Z,0.88
2019-04-14T15:36:32.500Z,1.10
2019-04-14T15:38:58.721Z,1.65
2019-04-14T15:41:24.938Z,0.82
2019-04-14T15:43:51.162Z,0.80
2019-04-14T15:46:18.473Z,1.03
2019-04-14T15:48:44.685Z,0.80
2019-04-14T15:51:11.008Z,0.90
2019-04-14T15:53:38.407Z,0.88
2019-04-14T15:56:05.645Z,0.60
2019-04-14T15:58:45.348Z,0.80
2019-04-14T16:01:28.477Z,0.72
2019-04-14T16:03:56.646Z,0.80
2019-04-14T16:06:30.538Z,0.70
2019-04-14T16:09:01.779Z,0.72
2019-04-14T16:11:34.551Z,0.70
2019-04-14T16:14:08.428Z,0.98
2019-04-14T16:16:36.524Z,0.62
2019-04-14T16:19:19.801Z,0.90
2019-04-14T16:21:46.081Z,1.40
2019-04-14T16:24:12.298Z,0.75
2019-04-14T16:26:46.605Z,0.90
2019-04-14T16:29:20.575Z,0.62
2019-04-14T16:31:48.755Z,0.70
2019-04-14T16:36:44.925Z,0.78
2019-04-14T16:39:11.553Z,0.60
2019-04-14T16:41:37.965Z,0.60
2019-04-14T16:44:04.177Z,0.70
2019-04-14T16:46:31.702Z,0.60
2019-04-14T16:48:58.217Z,0.70
2019-04-14T16:51:29.100Z,0.68
2019-04-14T16:54:02.888Z,0.68
2019-04-14T16:56:32.032Z,0.70
2019-04-14T16:59:00.178Z,0.80
2019-04-14T17:01:31.389Z,0.75
2019-04-14T17:03:57.600Z,0.70
2019-04-14T17:06:23.829Z,0.72
2019-04-14T17:08:50.033Z,0.62
2019-04-14T17:11:16.257Z,0.50
2019-04-14T17:13:44.571Z,0.62
2019-04-14T17:16:21.794Z,0.60
2019-04-14T17:19:04.749Z,0.80
2019-04-14T17:21:38.520Z,0.70
2019-04-14T17:24:24.469Z,1.00
2019-04-14T17:26:53.586Z,1.50
2019-04-14T17:29:30.515Z,1.00
2019-04-14T17:31:58.626Z,0.90
2019-04-14T17:34:29.251Z,0.72
2019-04-14T17:37:00.137Z,0.62
2019-04-14T17:39:40.452Z,0.50
2019-04-14T17:42:25.198Z,0.72
2019-04-14T17:44:53.305Z,0.80
2019-04-14T17:47:39.377Z,0.70
2019-04-14T17:50:08.485Z,0.80
2019-04-14T17:52:36.703Z,0.90
2019-04-14T17:55:22.201Z,1.00
2019-04-14T17:58:05.069Z,1.00
2019-04-14T18:00:42.497Z,1.17
2019-04-14T18:03:16.617Z,0.72
2019-04-14T18:05:44.877Z,0.95
2019-04-14T18:10:52.543Z,0.70
2019-04-14T18:13:20.664Z,1.00
2019-04-14T18:16:05.137Z,0.65
2019-04-14T18:18:35.789Z,0.80
2019-04-14T18:21:03.901Z,0.90
2019-04-14T18:23:30.118Z,3.47
2019-04-14T18:25:56.325Z,2.62
2019-04-14T18:28:41.004Z,2.00
2019-04-14T18:31:09.121Z,1.47
2019-04-14T18:33:53.777Z,1.22
2019-04-14T18:36:38.617Z,0.98
2019-04-14T18:39:12.113Z,1.12
2019-04-14T18:41:43.100Z,1.05
2019-04-14T18:44:11.214Z,1.60
2019-04-14T18:46:51.542Z,1.25
2019-04-14T18:49:31.547Z,1.40
2019-04-14T18:52:02.805Z,1.00
2019-04-14T18:54:31.014Z,1.50
2019-04-14T18:59:42.002Z,1.80
2019-04-14T19:02:09.425Z,1.20
2019-04-14T19:04:35.634Z,1.30
2019-04-14T19:07:01.842Z,1.20
2019-04-14T19:09:28.137Z,1.22
2019-04-14T19:12:04.965Z,1.25
2019-04-14T19:14:33.352Z,1.90
2019-04-14T19:17:07.514Z,1.92
2019-04-14T19:19:35.641Z,1.98
2019-04-14T19:22:01.855Z,1.60
2019-04-14T19:24:28.060Z,1.70
2019-04-14T19:26:54.307Z,2.45
2019-04-14T19:29:20.812Z,3.10
2019-04-14T19:31:47.025Z,2.50
2019-04-14T19:34:13.257Z,2.33
2019-04-14T19:36:39.465Z,2.10
2019-04-14T19:39:09.269Z,2.40
2019-04-14T19:41:35.602Z,1.70
2019-04-14T19:44:01.938Z,1.70
2019-04-14T19:46:28.149Z,1.45
2019-04-14T19:48:54.370Z,1.50
2019-04-14T19:51:20.681Z,1.72
2019-04-14T19:53:46.908Z,1.30
2019-04-14T19:56:13.129Z,1.05
2019-04-14T19:58:39.345Z,1.35
2019-04-14T20:01:07.246Z,1.20
2019-04-14T20:03:33.751Z,1.15
2019-04-14T20:06:00.057Z,1.00
2019-04-14T20:08:26.269Z,0.80
2019-04-14T20:10:52.585Z,1.12
2019-04-14T20:13:18.801Z,1.17
2019-04-14T20:16:03.275Z,1.30
2019-04-14T20:18:31.382Z,1.35
2019-04-14T20:21:12.481Z,1.10
2019-04-14T20:23:43.462Z,1.25
2019-04-14T20:26:23.721Z,0.93
2019-04-14T20:29:07.041Z,1.27
2019-04-14T20:31:35.364Z,1.27
2019-04-14T20:36:27.697Z,1.10
2019-04-14T20:38:53.934Z,0.93
2019-04-14T20:41:20.212Z,1.17
2019-04-14T20:43:46.541Z,1.17
2019-04-14T20:46:12.865Z,1.00
2019-04-14T20:48:39.065Z,1.07
2019-04-14T20:51:05.289Z,1.02
2019-04-14T20:53:31.533Z,1.77
2019-04-14T20:55:57.755Z,0.90
2019-04-14T20:58:23.974Z,1.22
2019-04-14T21:00:50.344Z,0.80
2019-04-14T21:03:18.660Z,1.10
2019-04-14T21:08:19.577Z,1.40
2019-04-14T21:10:50.710Z,0.95
2019-04-14T21:13:24.457Z,0.90
2019-04-14T21:15:55.283Z,1.10
2019-04-14T21:18:23.461Z,0.82
2019-04-14T21:20:54.124Z,1.20
2019-04-14T21:23:28.121Z,1.20
2019-04-14T21:26:00.651Z,1.30
2019-04-14T21:28:42.726Z,1.33
2019-04-14T21:31:15.047Z,1.00
2019-04-14T21:33:43.164Z,0.93
2019-04-14T21:36:29.524Z,0.88
2019-04-14T21:39:12.488Z,1.00
2019-04-14T21:41:40.820Z,1.10
2019-04-14T21:44:07.037Z,0.93
2019-04-14T21:46:33.253Z,1.20
2019-04-14T21:48:59.477Z,0.93
2019-04-14T21:51:27.607Z,0.80
2019-04-14T21:53:53.831Z,1.00
2019-04-14T21:56:20.849Z,1.10
2019-04-14T21:58:48.956Z,1.03
2019-04-14T22:01:38.953Z,0.95
2019-04-14T22:04:23.437Z,1.27
2019-04-14T22:06:51.567Z,0.98
2019-04-14T22:09:19.677Z,1.07
2019-04-14T22:14:12.160Z,1.20
2019-04-14T22:16:38.374Z,1.20
2019-04-14T22:19:04.677Z,1.17
2019-04-14T22:21:30.917Z,0.80
2019-04-14T22:24:01.600Z,1.00
2019-04-14T22:26:26.269Z,1.00
2019-04-14T22:28:52.915Z,1.00
2019-04-14T22:31:19.180Z,1.10
2019-04-14T22:33:45.393Z,0.73
2019-04-14T22:36:11.649Z,1.00
2019-04-14T22:38:37.872Z,0.93
2019-04-14T22:41:04.641Z,0.80
2019-04-14T22:43:30.875Z,1.10
2019-04-14T22:45:57.149Z,1.07
2019-04-14T22:48:23.369Z,1.00
2019-04-14T22:50:49.713Z,0.87
2019-04-14T22:53:16.020Z,0.90
2019-04-14T22:55:42.246Z,0.90
2019-04-14T22:58:09.483Z,1.00
2019-04-14T23:00:52.888Z,0.87
2019-04-14T23:03:37.984Z,0.87
2019-04-14T23:06:09.150Z,1.03
2019-04-14T23:08:49.399Z,1.30
2019-04-14T23:11:34.597Z,0.73
2019-04-14T23:14:05.957Z,0.93
2019-04-14T23:16:36.857Z,1.00
2019-04-14T23:19:07.742Z,0.90
2019-04-14T23:21:42.033Z,0.90
2019-04-14T23:24:12.965Z,0.90
2019-04-14T23:26:51.412Z,1.00
2019-04-14T23:29:07.393Z,1.10
2019-04-14T23:31:33.642Z,0.97
2019-04-14T23:33:59.857Z,0.97
2019-04-14T23:36:26.171Z,0.80
2019-04-14T23:38:52.393Z,1.10
2019-04-14T23:41:18.614Z,1.07
2019-04-14T23:43:44.833Z,0.93
2019-04-14T23:46:11.165Z,1.10
2019-04-14T23:48:37.462Z,1.07
2019-04-14T23:51:03.780Z,1.20
2019-04-14T23:53:30.009Z,0.90
2019-04-14T23:55:56.221Z,0.87
2019-04-14T23:58:23.550Z,1.17
